East Des Moines, Iowa
Current Conditions -  °F | °C
As of 6:18 PM on Wednesday 26 Nov 2014 (Local Time) from KDSM Reporting Station
Light Snow Light Snow  
Wind Chill: 20°   Ceiling: 1000
Heat Index: 30°   Visibility: 1.7mi
Dew Point: 27°   Wind: 13mph
Humidity: 88%   Direction: 10°N
Pressure: 30.21"   Gusts: NA
Location:  41.5836°N, 93.6292°W
Report Text: KDSM 270018Z 01011KT 1 3/4SM -SN BR OVC010 M01/M03 A3021 RMK AO2 TWR VIS 2 P0001 T10111028
Loading
Personal Weather Stations






























Interactive Weather Map New forecast layout! Learn more

10-Day Weather Forecast

Advertisements
Track Severe Weather on mobile